Time;durP1;ratioP1;P1;durP2;ratioP2;P2;SDS_P1;SDS_P2;PMS_P1;PMS_P2;Temp;Humidity;BMP_temperature;BMP_pressure;BME280_temperature;BME280_humidity;BME280_pressure;Samples;Min_cycle;Max_cycle;Signal;HPM_P1;HPM_P2
2023/09/18 00:00:46;;;;;;;25.00;18.90;;;;;;;18.09;100.00;100495.53;4940282;29;20114;-93
2023/09/18 00:03:11;;;;;;;24.45;18.90;;;;;;;17.99;100.00;100477.66;4943874;29;20088;-93
2023/09/18 00:05:36;;;;;;;24.90;18.90;;;;;;;18.07;100.00;100489.66;4936364;29;20064;-92
2023/09/18 00:08:02;;;;;;;24.13;19.27;;;;;;;17.89;100.00;100461.69;4934265;29;20534;-94
2023/09/18 00:10:30;;;;;;;26.02;18.38;;;;;;;18.04;100.00;100490.28;4918581;29;20027;-93
2023/09/18 00:12:56;;;;;;;26.10;18.52;;;;;;;17.97;100.00;100479.88;4934634;29;20043;-92
2023/09/18 00:15:21;;;;;;;25.98;18.80;;;;;;;17.99;100.00;100480.38;4934439;29;20028;-92
2023/09/18 00:17:46;;;;;;;23.73;18.23;;;;;;;17.98;100.00;100479.59;4934983;29;20542;-92
2023/09/18 00:20:12;;;;;;;22.97;16.73;;;;;;;17.99;100.00;100466.81;4934000;29;20043;-94
2023/09/18 00:22:38;;;;;;;24.63;17.52;;;;;;;17.91;100.00;100454.81;4933056;29;20055;-92
2023/09/18 00:25:04;;;;;;;24.17;17.43;;;;;;;17.92;100.00;100451.00;4933765;29;20114;-93
2023/09/18 00:27:29;;;;;;;19.52;16.55;;;;;;;17.97;100.00;100459.00;4934530;29;20396;-93
2023/09/18 00:29:55;;;;;;;23.03;16.20;;;;;;;17.85;100.00;100429.78;4934032;29;20052;-93
2023/09/18 00:32:20;;;;;;;22.23;16.93;;;;;;;17.88;100.00;100425.66;4934405;29;20403;-92
2023/09/18 00:34:46;;;;;;;19.57;15.80;;;;;;;17.90;100.00;100426.13;4934041;29;20035;-93
2023/09/18 00:37:12;;;;;;;21.43;15.73;;;;;;;17.88;100.00;100416.72;4934666;29;20024;-94
2023/09/18 00:39:38;;;;;;;20.93;15.40;;;;;;;17.90;100.00;100418.00;4933787;29;20324;-92
2023/09/18 00:42:03;;;;;;;23.95;15.93;;;;;;;17.82;100.00;100405.25;4934562;29;20091;-94
2023/09/18 00:44:29;;;;;;;21.00;15.50;;;;;;;17.93;100.00;100408.44;4935510;29;20657;-91
2023/09/18 00:46:56;;;;;;;23.60;14.83;;;;;;;17.92;100.00;100401.44;4913799;29;20686;-92
2023/09/18 00:49:23;;;;;;;18.95;14.50;;;;;;;18.01;100.00;100416.63;4925619;29;20082;-92
2023/09/18 00:51:50;;;;;;;20.02;15.13;;;;;;;17.98;100.00;100395.56;4934127;29;20024;-91
2023/09/18 00:54:19;;;;;;;16.85;14.02;;;;;;;18.03;100.00;100404.66;4930160;29;20035;-91
2023/09/18 00:56:47;;;;;;;19.80;15.35;;;;;;;18.00;100.00;100401.47;4920765;29;20032;-92
2023/09/18 00:59:13;;;;;;;19.08;14.07;;;;;;;18.02;100.00;100393.00;4941364;29;20407;-92
2023/09/18 01:01:41;;;;;;;18.60;13.33;;;;;;;17.99;100.00;100386.31;4939480;29;20472;-93
2023/09/18 01:04:07;;;;;;;18.45;14.27;;;;;;;18.06;100.00;100387.75;4928472;29;20022;-92
2023/09/18 01:06:32;;;;;;;20.90;12.90;;;;;;;18.08;100.00;100370.06;4935173;29;20031;-93
2023/09/18 01:08:59;;;;;;;18.10;13.68;;;;;;;18.15;100.00;100367.66;4931935;29;20039;-93
2023/09/18 01:11:33;;;;;;;19.37;12.83;;;;;;;18.19;100.00;100359.69;4930273;29;20526;-93
2023/09/18 01:14:25;;;;;;;16.33;12.53;;;;;;;18.20;100.00;100368.59;4930177;29;20755;-93
2023/09/18 01:16:56;;;;;;;17.45;13.25;;;;;;;18.21;100.00;100368.28;4932362;29;20162;-92
2023/09/18 01:19:37;;;;;;;18.00;12.65;;;;;;;18.24;100.00;100359.53;4931054;29;20057;-93
2023/09/18 01:22:04;;;;;;;18.02;12.00;;;;;;;18.24;100.00;100343.25;4926570;29;20024;-93
2023/09/18 01:24:32;;;;;;;17.55;12.15;;;;;;;18.19;100.00;100335.28;4948932;28;20053;-91
2023/09/18 01:26:57;;;;;;;17.17;12.48;;;;;;;18.28;100.00;100349.59;4927003;29;20449;-94
2023/09/18 01:29:23;;;;;;;16.13;12.23;;;;;;;18.23;100.00;100338.94;4927976;29;20043;-93
2023/09/18 01:31:48;;;;;;;15.93;11.73;;;;;;;18.19;100.00;100329.84;4940955;29;20408;-93
2023/09/18 01:34:16;;;;;;;16.67;12.50;;;;;;;18.27;100.00;100345.28;4944684;29;20027;-93
2023/09/18 01:36:44;;;;;;;16.58;12.20;;;;;;;18.33;100.00;100345.13;4951509;29;20376;-93
2023/09/18 01:39:11;;;;;;;15.80;11.38;;;;;;;18.29;100.00;100343.06;4923704;29;20043;-92
2023/09/18 01:41:38;;;;;;;13.07;10.43;;;;;;;18.31;100.00;100342.75;4912669;29;20058;-93
2023/09/18 01:44:04;;;;;;;13.57;10.52;;;;;;;18.35;100.00;100340.19;4924304;29;20182;-93
2023/09/18 01:46:32;;;;;;;12.93;9.53;;;;;;;18.42;100.00;100359.50;4930844;29;20143;-92
2023/09/18 01:48:58;;;;;;;12.17;9.87;;;;;;;18.26;100.00;100324.72;4929998;29;20307;-93
2023/09/18 01:51:24;;;;;;;12.27;9.88;;;;;;;18.31;100.00;100327.28;4934781;29;20106;-92
2023/09/18 01:53:49;;;;;;;13.55;8.98;;;;;;;18.44;100.00;100346.41;4928689;29;20118;-93
2023/09/18 01:56:14;;;;;;;12.07;8.77;;;;;;;18.36;100.00;100339.84;4936975;29;20136;-96
2023/09/18 01:58:40;;;;;;;13.40;8.47;;;;;;;18.48;100.00;100347.34;4933789;29;20052;-96
2023/09/18 02:01:05;;;;;;;14.27;8.40;;;;;;;18.45;100.00;100334.41;4943974;29;20130;-96
2023/09/18 02:03:30;;;;;;;18.97;8.60;;;;;;;18.45;100.00;100335.22;4940758;29;20123;-96
2023/09/18 02:05:56;;;;;;;10.53;7.90;;;;;;;18.46;100.00;100341.44;4935119;29;20071;-96
2023/09/18 02:08:21;;;;;;;13.30;8.82;;;;;;;18.33;100.00;100312.59;4957028;29;20596;-95
2023/09/18 02:10:47;;;;;;;14.73;8.63;;;;;;;18.54;100.00;100337.91;4962207;29;20055;-95
2023/09/18 02:13:13;;;;;;;17.77;8.97;;;;;;;18.17;100.00;100269.72;4948264;29;20027;-96
2023/09/18 02:15:40;;;;;;;13.75;8.20;;;;;;;18.55;100.00;100325.94;4942441;29;20036;-95
2023/09/18 02:18:06;;;;;;;11.77;8.43;;;;;;;18.22;100.00;100269.56;4946864;29;20028;-96
2023/09/18 02:20:31;;;;;;;12.37;8.57;;;;;;;18.34;100.00;100290.59;4945619;29;20039;-96
2023/09/18 02:22:56;;;;;;;11.57;7.83;;;;;;;18.41;100.00;100309.06;4920877;29;20599;-96
2023/09/18 02:25:22;;;;;;;14.00;8.13;;;;;;;18.35;100.00;100297.59;4937470;29;20377;-96
2023/09/18 02:27:47;;;;;;;11.23;7.70;;;;;;;18.38;100.00;100296.16;4936732;29;20039;-96
2023/09/18 02:30:13;;;;;;;12.60;8.10;;;;;;;18.28;100.00;100279.09;4919434;29;20127;-96
2023/09/18 02:32:38;;;;;;;12.88;7.95;;;;;;;18.29;100.00;100269.06;4919326;29;20381;-96
2023/09/18 02:35:06;;;;;;;13.07;8.40;;;;;;;18.46;100.00;100292.59;4939825;29;20027;-96
2023/09/18 02:37:32;;;;;;;14.13;8.23;;;;;;;18.20;100.00;100239.25;4946116;29;20031;-96
2023/09/18 02:39:58;;;;;;;15.93;8.13;;;;;;;18.45;100.00;100266.59;4940461;29;20123;-96
2023/09/18 02:42:23;;;;;;;14.38;8.02;;;;;;;18.36;100.00;100244.16;4946354;29;20015;-96
2023/09/18 02:44:50;;;;;;;15.60;7.80;;;;;;;18.41;100.00;100255.63;4949842;28;20032;-96
2023/09/18 02:47:15;;;;;;;9.90;7.85;;;;;;;18.58;100.00;100270.22;4932003;29;20031;-96
2023/09/18 02:49:41;;;;;;;16.60;8.07;;;;;;;18.41;100.00;100231.19;4955077;28;20099;-95
2023/09/18 02:52:06;;;;;;;12.43;7.37;;;;;;;18.61;100.00;100256.81;4941299;28;20115;-96
2023/09/18 02:54:31;;;;;;;12.82;7.28;;;;;;;18.58;100.00;100243.91;4928135;29;20076;-96
2023/09/18 02:56:57;;;;;;;11.87;7.27;;;;;;;18.52;100.00;100228.91;4920119;29;20427;-96
2023/09/18 02:59:22;;;;;;;17.07;7.20;;;;;;;18.53;100.00;100222.38;4932230;29;20119;-96
2023/09/18 03:01:48;;;;;;;15.30;6.53;;;;;;;18.73;100.00;100249.91;4933383;29;20067;-95
2023/09/18 03:04:14;;;;;;;10.70;6.28;;;;;;;18.60;100.00;100225.38;4941396;29;20035;-95
2023/09/18 03:06:41;;;;;;;18.07;6.70;;;;;;;18.76;100.00;100238.41;4953746;29;20066;-95
2023/09/18 03:09:06;;;;;;;10.88;6.05;;;;;;;18.41;100.00;100181.59;4939991;29;20034;-96
2023/09/18 03:11:32;;;;;;;14.63;6.57;;;;;;;18.71;100.00;100239.38;4938492;29;20035;-96
2023/09/18 03:13:57;;;;;;;14.20;6.60;;;;;;;18.57;100.00;100206.22;4938628;29;20043;-96
2023/09/18 03:16:23;;;;;;;11.83;6.50;;;;;;;18.57;100.00;100201.63;4938787;29;20242;-96
2023/09/18 03:18:48;;;;;;;15.85;6.47;;;;;;;18.53;100.00;100191.75;4937903;29;20024;-96
2023/09/18 03:21:14;;;;;;;10.87;6.90;;;;;;;18.72;100.00;100218.47;4920885;29;20059;-96
2023/09/18 03:23:40;;;;;;;14.10;6.75;;;;;;;18.65;100.00;100210.03;4944842;29;20035;-96
2023/09/18 03:26:06;;;;;;;12.53;6.70;;;;;;;18.68;100.00;100210.19;4957541;29;20106;-96
2023/09/18 03:28:31;;;;;;;12.63;6.53;;;;;;;18.54;100.00;100207.69;4940006;29;20332;-96
2023/09/18 03:30:58;;;;;;;10.77;6.50;;;;;;;18.69;100.00;100241.63;4937123;29;20035;-96
2023/09/18 03:33:23;;;;;;;12.00;6.97;;;;;;;18.80;100.00;100241.25;4935187;29;20024;-96
2023/09/18 03:35:51;;;;;;;12.40;6.33;;;;;;;18.82;100.00;100247.91;4919726;29;20119;-96
2023/09/18 03:38:16;;;;;;;16.35;6.80;;;;;;;18.86;100.00;100248.84;4937053;29;20020;-96
2023/09/18 03:40:43;;;;;;;12.17;6.20;;;;;;;18.78;100.00;100236.16;4938363;29;20094;-96
2023/09/18 03:43:09;;;;;;;10.90;6.10;;;;;;;18.63;100.00;100213.06;4928595;29;20028;-95
2023/09/18 03:45:35;;;;;;;15.57;6.53;;;;;;;18.72;100.00;100227.38;4930524;29;20028;-96
2023/09/18 03:48:00;;;;;;;13.00;6.90;;;;;;;18.57;100.00;100209.75;4929863;29;20020;-96
2023/09/18 03:50:27;;;;;;;13.60;6.38;;;;;;;18.69;100.00;100229.97;4949233;29;20588;-96
2023/09/18 03:52:52;;;;;;;13.73;6.40;;;;;;;18.77;100.00;100231.84;4931587;29;20046;-95
2023/09/18 03:55:17;;;;;;;13.10;5.97;;;;;;;18.58;100.00;100199.69;4904023;29;20363;-95
2023/09/18 03:57:44;;;;;;;12.17;6.93;;;;;;;18.89;100.00;100242.00;4919905;29;20027;-95
2023/09/18 04:00:11;;;;;;;14.25;6.78;;;;;;;18.89;100.00;100231.91;4933505;29;20028;-96
2023/09/18 04:02:36;;;;;;;15.68;6.70;;;;;;;18.89;100.00;100231.91;4950938;28;20042;-95
2023/09/18 04:05:01;;;;;;;14.87;6.30;;;;;;;18.79;100.00;100218.75;4925127;29;20127;-96
2023/09/18 04:07:27;;;;;;;13.23;7.10;;;;;;;18.83;100.00;100244.09;4920690;29;20028;-94
2023/09/18 04:09:52;;;;;;;12.87;6.90;;;;;;;18.79;100.00;100245.06;4930254;29;20401;-94
2023/09/18 04:12:17;;;;;;;15.70;7.03;;;;;;;18.86;100.00;100264.38;4917450;29;20043;-95
2023/09/18 04:14:43;;;;;;;14.10;7.70;;;;;;;18.68;100.00;100248.16;4932157;29;20027;-96
2023/09/18 04:17:09;;;;;;;12.93;7.17;;;;;;;18.53;100.00;100233.22;4959239;28;20011;-96
2023/09/18 04:22:35;;;;;;;18.85;8.43;;;;;;;18.71;100.00;100268.41;5948050;23;21137;-96
2023/09/18 04:30:17;;;;;;;11.98;7.65;;;;;;;18.26;100.00;100194.56;5216023;23;20055;-96
2023/09/18 04:33:30;;;;;;;16.13;8.32;;;;;;;18.20;100.00;100174.19;4968285;28;20039;-96
2023/09/18 04:36:44;;;;;;;14.57;7.95;;;;;;;18.47;100.00;100210.13;4954862;28;20210;-96
2023/09/18 04:45:28;;;;;;;17.73;8.90;;;;;;;18.05;100.00;100139.50;5469963;23;20043;-96
2023/09/18 04:47:54;;;;;;;11.63;8.63;;;;;;;18.13;100.00;100131.31;4976915;28;20376;-95
2023/09/18 04:58:07;;;;;;;12.70;9.00;;;;;;;18.04;100.00;100140.59;3290623;23;20113;-94
2023/09/18 05:00:33;;;;;;;18.63;9.32;;;;;;;18.16;100.00;100154.25;4962784;28;20023;-95
2023/09/18 05:03:01;;;;;;;15.57;9.30;;;;;;;18.15;100.00;100160.81;4963432;28;20053;-94
2023/09/18 05:05:29;;;;;;;14.00;9.27;;;;;;;17.83;100.00;100123.09;4962197;28;20047;-96
2023/09/18 05:07:55;;;;;;;15.68;8.95;;;;;;;18.13;100.00;100157.63;4941942;29;20031;-96
2023/09/18 05:10:20;;;;;;;15.43;8.73;;;;;;;17.98;100.00;100154.34;4952582;28;20503;-87
2023/09/18 05:12:46;;;;;;;16.33;9.10;;;;;;;18.04;100.00;100162.28;4948855;29;20157;-87
2023/09/18 05:15:12;;;;;;;11.80;7.27;;;;;;;17.96;100.00;100144.91;4949875;29;20541;-86
2023/09/18 05:17:46;;;;;;;12.60;6.47;;;;;;;18.05;100.00;100161.97;4950621;29;20023;-88
2023/09/18 05:20:14;;;;;;;9.50;5.45;;;;;;;17.97;100.00;100160.84;4953271;29;20031;-90
2023/09/18 05:22:40;;;;;;;10.67;4.77;;;;;;;18.04;100.00;100162.28;4965405;28;20110;-94
2023/09/18 05:25:07;;;;;;;8.53;5.20;;;;;;;18.02;100.00;100176.16;4956740;29;20817;-90
2023/09/18 05:27:32;;;;;;;6.53;4.63;;;;;;;17.97;100.00;100171.69;4962753;29;20030;-89
2023/09/18 05:29:58;;;;;;;6.15;4.25;;;;;;;17.94;100.00;100158.78;4961044;29;20039;-91
2023/09/18 05:32:23;;;;;;;10.40;4.10;;;;;;;17.97;100.00;100168.97;4954461;29;20027;-92
2023/09/18 05:34:48;;;;;;;7.60;3.90;;;;;;;17.97;100.00;100163.56;4955571;29;20154;-92
2023/09/18 05:37:14;;;;;;;8.17;3.80;;;;;;;18.09;100.00;100168.31;4954800;29;20070;-90
2023/09/18 05:39:40;;;;;;;7.10;3.30;;;;;;;18.10;100.00;100167.22;4952297;28;20574;-92
2023/09/18 05:42:05;;;;;;;7.67;3.13;;;;;;;18.13;100.00;100179.31;4954070;28;20106;-91
2023/09/18 05:44:30;;;;;;;4.30;3.00;;;;;;;18.18;100.00;100168.28;4951594;29;20045;-90
2023/09/18 05:46:56;;;;;;;6.63;2.97;;;;;;;18.20;100.00;100173.38;4952804;29;20027;-91
2023/09/18 05:49:21;;;;;;;4.17;2.63;;;;;;;18.23;100.00;100181.69;4955835;29;20019;-91
2023/09/18 05:51:48;;;;;;;7.83;2.93;;;;;;;18.25;100.00;100187.56;4954121;29;20023;-91
2023/09/18 05:54:14;;;;;;;7.88;2.70;;;;;;;18.20;100.00;100181.50;4956333;28;20367;-92
2023/09/18 05:56:39;;;;;;;5.90;2.70;;;;;;;18.19;100.00;100178.03;4952233;28;20031;-92
2023/09/18 05:59:05;;;;;;;6.60;2.30;;;;;;;18.24;100.00;100193.31;4955625;29;20525;-92
2023/09/18 06:01:31;;;;;;;4.72;2.30;;;;;;;18.25;100.00;100197.59;4955768;28;20106;-94
2023/09/18 06:03:56;;;;;;;4.72;2.10;;;;;;;18.27;100.00;100196.16;4957912;29;20424;-92
2023/09/18 06:06:22;;;;;;;4.53;2.50;;;;;;;18.26;100.00;100182.94;4945487;29;20061;-88
2023/09/18 06:08:47;;;;;;;5.30;2.40;;;;;;;18.23;100.00;100194.44;4952934;28;20494;-89
2023/09/18 06:11:13;;;;;;;4.23;2.17;;;;;;;18.33;100.00;100220.38;4952470;29;20046;-93
2023/09/18 06:13:38;;;;;;;3.30;2.00;;;;;;;18.21;100.00;100205.59;4955016;29;20035;-93
2023/09/18 06:16:07;;;;;;;4.27;2.20;;;;;;;18.27;100.00;100211.63;4955299;28;20051;-93
2023/09/18 06:18:33;;;;;;;7.80;2.50;;;;;;;18.31;100.00;100212.59;4957474;29;20047;-92
2023/09/18 06:20:58;;;;;;;9.25;2.25;;;;;;;18.35;100.00;100223.56;4953564;29;20085;-93
2023/09/18 06:23:24;;;;;;;3.27;2.23;;;;;;;18.30;100.00;100211.00;4954131;29;20023;-95
2023/09/18 06:25:55;;;;;;;3.60;1.87;;;;;;;18.30;100.00;100216.41;4954324;29;20027;-94
2023/09/18 06:28:20;;;;;;;3.25;2.30;;;;;;;18.23;100.00;100205.28;4954037;29;20713;-93
2023/09/18 06:30:46;;;;;;;8.73;2.10;;;;;;;18.29;100.00;100229.16;4954196;29;20110;-93
2023/09/18 06:33:12;;;;;;;8.13;2.20;;;;;;;18.20;100.00;100209.44;4953650;29;20095;-92
2023/09/18 06:35:38;;;;;;;4.97;1.92;;;;;;;18.27;100.00;100217.84;4951773;28;20035;-94
2023/09/18 06:38:05;;;;;;;4.63;1.90;;;;;;;18.29;100.00;100222.97;4957124;29;20040;-96
2023/09/18 06:40:34;;;;;;;4.57;2.03;;;;;;;18.34;100.00;100239.06;4974549;28;20023;-96
2023/09/18 06:43:00;;;;;;;4.32;2.00;;;;;;;18.31;100.00;100229.63;4965406;28;20027;-92
2023/09/18 06:45:25;;;;;;;4.65;2.30;;;;;;;18.35;100.00;100235.19;4952979;29;20034;-92
2023/09/18 06:47:52;;;;;;;3.80;2.20;;;;;;;18.38;100.00;100231.84;4969128;28;20027;-94
2023/09/18 06:50:18;;;;;;;3.70;2.00;;;;;;;18.56;100.00;100258.91;4957241;28;20035;-91
2023/09/18 06:52:46;;;;;;;3.80;2.03;;;;;;;18.55;100.00;100249.16;4939497;29;20031;-95
2023/09/18 06:55:11;;;;;;;7.82;2.03;;;;;;;18.75;100.00;100270.16;4951515;29;20027;-92
2023/09/18 06:57:37;;;;;;;8.43;2.28;;;;;;;18.80;100.00;100265.66;4964243;28;20542;-96
2023/09/18 07:00:04;;;;;;;5.47;2.20;;;;;;;18.94;100.00;100268.16;4958629;28;20034;-94
2023/09/18 07:02:29;;;;;;;6.88;2.38;;;;;;;19.03;100.00;100279.78;4960441;28;20090;-94
2023/09/18 07:04:55;;;;;;;5.20;2.00;;;;;;;19.01;100.00;100260.28;4961605;29;20035;-96
2023/09/18 07:07:25;;;;;;;4.53;1.80;;;;;;;19.12;100.00;100275.09;4957315;28;20123;-96
2023/09/18 07:09:51;;;;;;;4.95;1.80;;;;;;;19.15;100.00;100276.34;4922915;29;20478;-96
2023/09/18 07:12:19;;;;;;;4.25;1.80;;;;;;;19.15;100.00;100266.31;4950314;29;20078;-94
2023/09/18 07:14:45;;;;;;;4.68;2.00;;;;;;;19.14;100.00;100272.03;4951658;29;20390;-92
2023/09/18 07:17:12;;;;;;;4.27;1.97;;;;;;;19.06;100.00;100273.69;4950192;28;20030;-94
2023/09/18 07:19:38;;;;;;;2.55;1.85;;;;;;;19.16;100.00;100276.03;4952622;28;20094;-95
2023/09/18 07:22:03;;;;;;;4.75;1.80;;;;;;;19.21;100.00;100292.13;4956104;28;20035;-95
2023/09/18 07:24:28;;;;;;;4.43;1.80;;;;;;;19.26;100.00;100282.19;4958113;29;20034;-95
2023/09/18 07:26:54;;;;;;;2.47;1.77;;;;;;;19.13;100.00;100273.97;4952566;28;20082;-95
2023/09/18 07:29:20;;;;;;;2.63;1.75;;;;;;;19.20;100.00;100289.75;4955337;29;20015;-96
2023/09/18 07:31:46;;;;;;;3.42;1.85;;;;;;;19.25;100.00;100295.00;4959113;29;20032;-94
2023/09/18 07:34:13;;;;;;;2.63;1.80;;;;;;;19.33;100.00;100298.78;4948311;29;20042;-96
2023/09/18 07:36:40;;;;;;;7.47;1.90;;;;;;;19.37;100.00;100294.25;4952286;29;20604;-96
2023/09/18 07:39:07;;;;;;;4.70;1.90;;;;;;;19.42;100.00;100296.78;4937198;29;20140;-96
2023/09/18 07:41:32;;;;;;;2.83;2.00;;;;;;;19.52;100.00;100303.75;4965788;29;20355;-94
2023/09/18 07:44:17;;;;;;;3.27;1.70;;;;;;;19.46;100.00;100286.84;4965012;29;20040;-96
2023/09/18 07:49:18;;;;;;;3.08;1.60;;;;;;;19.20;100.00;100257.94;5396366;23;20046;-95
2023/09/18 07:51:49;;;;;;;3.67;1.98;;;;;;;19.22;100.00;100255.69;4969318;29;20039;-96
2023/09/18 08:00:12;;;;;;;3.30;1.67;;;;;;;19.57;100.00;100261.97;5779729;23;20050;-86
2023/09/18 08:02:41;;;;;;;4.63;2.08;;;;;;;19.98;100.00;100301.16;4915149;29;20028;-86
2023/09/18 08:05:08;;;;;;;3.10;1.67;;;;;;;20.06;100.00;100303.00;4916283;29;20028;-88
2023/09/18 08:07:35;;;;;;;4.93;1.83;;;;;;;20.03;100.00;100303.66;4919931;29;20028;-89
2023/09/18 08:10:01;;;;;;;3.35;1.75;;;;;;;19.90;100.00;100294.66;4918989;29;20051;-88
2023/09/18 08:12:27;;;;;;;2.22;1.60;;;;;;;19.89;100.00;100303.94;4916540;29;20115;-88
2023/09/18 08:14:52;;;;;;;5.53;1.77;;;;;;;19.85;100.00;100281.22;4932319;29;20047;-88
2023/09/18 08:17:17;;;;;;;3.50;1.63;;;;;;;19.90;100.00;100291.16;4935369;29;20024;-88
2023/09/18 08:19:44;;;;;;;7.23;1.90;;;;;;;19.93;100.00;100309.50;4920924;29;20036;-89
2023/09/18 08:22:11;;;;;;;4.00;1.85;;;;;;;19.79;100.00;100288.81;4911576;29;20102;-89
2023/09/18 08:24:37;;;;;;;3.03;1.65;;;;;;;19.79;100.00;100296.19;4913258;29;20035;-88
2023/09/18 08:27:03;;;;;;;4.80;1.70;;;;;;;19.93;100.00;100309.50;4913647;29;20080;-89
2023/09/18 08:29:28;;;;;;;4.82;1.58;;;;;;;19.98;100.00;100306.59;4914070;29;20510;-89
2023/09/18 08:31:54;;;;;;;7.90;1.73;;;;;;;20.11;100.00;100324.53;4912967;29;20032;-89
2023/09/18 08:34:19;;;;;;;9.83;1.63;;;;;;;20.10;100.00;100320.22;4914592;29;20107;-89
2023/09/18 08:36:44;;;;;;;3.28;1.52;;;;;;;20.13;100.00;100325.00;4924674;29;20067;-91
2023/09/18 08:39:10;;;;;;;2.47;1.50;;;;;;;20.11;100.00;100338.13;4914704;29;20126;-91
2023/09/18 08:41:42;;;;;;;2.60;1.77;;;;;;;20.10;100.00;100343.91;4913558;29;20028;-91
2023/09/18 08:44:09;;;;;;;3.70;1.67;;;;;;;20.03;100.00;100347.16;4914402;29;20103;-91
2023/09/18 08:46:36;;;;;;;3.38;1.80;;;;;;;19.90;100.00;100353.69;4913746;29;20498;-90
2023/09/18 08:49:04;;;;;;;3.40;1.88;;;;;;;19.90;100.00;100340.09;4914018;29;20032;-90
2023/09/18 08:51:30;;;;;;;4.93;1.90;;;;;;;19.97;100.00;100343.06;4909509;29;20028;-88
2023/09/18 08:53:56;;;;;;;4.15;1.90;;;;;;;19.98;100.00;100350.09;4922120;29;20072;-91
2023/09/18 08:56:22;;;;;;;3.92;1.83;;;;;;;19.88;100.00;100326.03;4911957;29;20067;-91
2023/09/18 08:58:48;;;;;;;2.70;1.90;;;;;;;19.93;100.00;100339.41;4918186;29;20083;-87
2023/09/18 09:01:13;;;;;;;4.43;2.00;;;;;;;19.74;100.00;100324.34;4919431;29;20284;-90
2023/09/18 09:03:40;;;;;;;2.80;1.80;;;;;;;19.86;100.00;100337.19;4935553;29;20103;-91
2023/09/18 09:06:06;;;;;;;5.95;2.15;;;;;;;19.80;100.00;100336.59;4926324;29;20415;-91
2023/09/18 09:08:32;;;;;;;2.47;1.80;;;;;;;19.95;100.00;100346.13;4916870;29;20035;-90
2023/09/18 09:10:58;;;;;;;2.93;2.00;;;;;;;20.06;100.00;100330.19;4918504;29;20028;-91
2023/09/18 09:13:26;;;;;;;4.50;1.90;;;;;;;20.10;100.00;100338.47;4920837;29;20032;-90
2023/09/18 09:15:55;;;;;;;8.30;1.67;;;;;;;20.11;100.00;100346.28;4919962;29;20568;-91
2023/09/18 09:18:29;;;;;;;5.50;2.30;;;;;;;20.19;100.00;100344.59;4921505;29;20303;-92
2023/09/18 09:21:03;;;;;;;6.15;2.30;;;;;;;20.25;100.00;100339.78;4939826;29;20012;-92
2023/09/18 09:23:51;;;;;;;7.15;2.40;;;;;;;20.44;100.00;100355.56;4921693;29;20087;-92
2023/09/18 09:26:18;;;;;;;4.93;2.42;;;;;;;20.58;100.00;100356.03;4937494;29;20031;-93
2023/09/18 09:28:44;;;;;;;5.03;2.40;;;;;;;20.79;100.00;100357.16;4928656;29;20033;-92
2023/09/18 09:31:10;;;;;;;5.68;2.60;;;;;;;21.14;100.00;100362.94;4921125;29;20047;-92
2023/09/18 09:33:38;;;;;;;6.57;2.57;;;;;;;21.47;100.00;100367.44;4932339;29;20035;-92
2023/09/18 09:36:07;;;;;;;5.23;2.40;;;;;;;21.74;100.00;100367.06;4913618;29;20284;-91
2023/09/18 09:38:34;;;;;;;5.22;2.20;;;;;;;21.94;100.00;100368.81;4931743;29;20469;-91
2023/09/18 09:41:06;;;;;;;5.72;2.40;;;;;;;22.20;100.00;100364.06;4919756;29;20082;-90
2023/09/18 09:43:33;;;;;;;5.43;1.92;;;;;;;22.39;100.00;100375.09;4938886;29;20035;-90
2023/09/18 09:46:01;;;;;;;9.98;2.45;;;;;;;22.63;100.00;100372.63;4935184;29;20487;-90
2023/09/18 09:48:27;;;;;;;8.03;2.13;;;;;;;22.74;100.00;100370.16;4946553;29;20019;-90
2023/09/18 09:50:59;;;;;;;4.90;2.10;;;;;;;22.89;100.00;100363.91;4937179;29;20298;-90
2023/09/18 09:53:43;;;;;;;5.80;2.20;;;;;;;23.08;100.00;100354.97;4939244;29;20082;-90
2023/09/18 09:56:08;;;;;;;8.00;2.15;;;;;;;23.23;100.00;100358.88;4937621;29;20589;-90
2023/09/18 09:58:34;;;;;;;3.37;2.27;;;;;;;23.25;100.00;100359.31;4939480;29;20142;-90
2023/09/18 10:01:05;;;;;;;6.43;2.33;;;;;;;23.21;100.00;100358.44;4938559;29;20436;-92
2023/09/18 10:03:33;;;;;;;7.00;2.35;;;;;;;23.20;100.00;100366.94;4937006;29;20035;-90
2023/09/18 10:06:00;;;;;;;4.17;2.07;;;;;;;23.22;100.00;100376.41;4936575;29;20035;-91
2023/09/18 10:08:27;;;;;;;5.43;2.53;;;;;;;23.12;100.00;100390.56;4938888;29;20159;-92
2023/09/18 10:10:56;;;;;;;5.82;2.50;;;;;;;23.06;100.00;100392.00;4944493;29;20024;-92
2023/09/18 10:13:33;;;;;;;4.55;2.20;;;;;;;23.31;100.00;100397.28;4928277;29;20040;-91
2023/09/18 10:16:02;;;;;;;5.30;2.33;;;;;;;23.29;100.00;100405.84;4919724;29;20025;-93
2023/09/18 10:18:31;;;;;;;4.30;2.50;;;;;;;23.13;100.00;100392.97;4950876;29;20166;-91
2023/09/18 10:21:13;;;;;;;5.47;1.97;;;;;;;23.20;100.00;100405.19;4931434;29;20373;-93
2023/09/18 10:23:59;;;;;;;4.85;2.30;;;;;;;23.17;100.00;100403.19;4942387;29;20110;-92
2023/09/18 10:26:28;;;;;;;6.82;2.35;;;;;;;22.93;100.00;100383.88;4945751;29;20050;-93
2023/09/18 10:28:58;;;;;;;7.45;2.17;;;;;;;22.74;100.00;100381.88;4944384;29;20114;-91
2023/09/18 10:31:25;;;;;;;4.93;2.60;;;;;;;22.90;100.00;100383.81;4920622;29;20118;-91
2023/09/18 10:33:53;;;;;;;5.43;2.30;;;;;;;23.37;100.00;100380.25;4933741;29;20053;-92
2023/09/18 10:36:19;;;;;;;3.67;2.10;;;;;;;23.69;100.00;100393.84;4954490;23;20319;-92
2023/09/18 10:38:50;;;;;;;4.82;2.10;;;;;;;23.82;99.49;100394.53;4929199;29;20424;-92
2023/09/18 10:41:17;;;;;;;4.78;2.40;;;;;;;23.56;98.96;100379.50;4930758;29;20035;-91
2023/09/18 10:43:45;;;;;;;3.72;2.13;;;;;;;23.59;98.69;100386.19;4932047;29;20024;-92
2023/09/18 10:46:13;;;;;;;6.00;2.15;;;;;;;23.44;98.30;100385.13;4941058;29;20020;-91
2023/09/18 10:48:43;;;;;;;4.17;2.10;;;;;;;23.31;99.90;100370.75;4940511;29;20028;-91
2023/09/18 10:51:09;;;;;;;7.37;2.10;;;;;;;23.07;100.00;100393.59;4932997;29;20299;-91
2023/09/18 10:53:38;;;;;;;5.57;2.33;;;;;;;22.80;100.00;100379.66;4917410;29;20036;-92
2023/09/18 10:56:06;;;;;;;9.77;2.33;;;;;;;22.72;100.00;100373.25;4934164;29;20026;-92
2023/09/18 10:58:35;;;;;;;4.68;2.80;;;;;;;22.96;100.00;100376.94;4931740;29;20031;-90
2023/09/18 11:01:02;;;;;;;3.55;2.60;;;;;;;23.10;100.00;100371.00;4933913;29;20035;-91
2023/09/18 11:03:27;;;;;;;7.90;2.83;;;;;;;23.25;100.00;100366.72;4909181;29;20617;-92
2023/09/18 11:06:09;;;;;;;8.87;2.90;;;;;;;23.34;100.00;100371.97;4934900;29;20299;-90
2023/09/18 11:08:46;;;;;;;7.53;2.90;;;;;;;23.49;96.36;100378.56;4934506;29;20051;-89
2023/09/18 11:11:14;;;;;;;3.97;2.80;;;;;;;23.58;95.78;100376.41;4919667;29;20123;-90
2023/09/18 11:13:54;;;;;;;4.93;2.30;;;;;;;23.92;96.61;100373.19;4931576;29;20455;-90
2023/09/18 11:16:28;;;;;;;7.25;2.40;;;;;;;24.24;93.92;100386.75;4930819;29;20042;-89
2023/09/18 11:18:59;;;;;;;3.88;2.92;;;;;;;24.27;91.40;100388.75;4933069;29;20042;-89
2023/09/18 11:21:27;;;;;;;5.55;2.60;;;;;;;24.02;90.91;100387.13;4915116;29;20043;-90
2023/09/18 11:24:04;;;;;;;5.28;2.92;;;;;;;23.93;92.75;100383.78;4935534;29;20031;-90
2023/09/18 11:26:37;;;;;;;5.33;2.80;;;;;;;23.77;92.54;100388.53;4921857;29;20039;-89
2023/09/18 11:29:09;;;;;;;6.33;2.57;;;;;;;23.64;94.66;100391.41;4918795;29;20766;-90
2023/09/18 11:31:50;;;;;;;6.63;2.80;;;;;;;23.93;93.99;100389.25;4914928;29;20115;-91
2023/09/18 11:34:31;;;;;;;8.15;2.80;;;;;;;24.16;92.57;100386.63;4930392;29;20035;-91
2023/09/18 11:36:57;;;;;;;5.95;2.83;;;;;;;24.12;89.67;100390.44;4932710;29;20036;-91
2023/09/18 11:39:43;;;;;;;6.47;2.58;;;;;;;24.18;93.79;100395.28;4927198;29;20080;-90
2023/09/18 11:47:23;;;;;;;5.05;2.42;;;;;;;24.53;81.71;100381.81;5922164;23;20023;-90
2023/09/18 11:49:58;;;;;;;3.13;2.40;;;;;;;24.41;84.98;100375.34;4950969;29;20061;-90